HTZA/ZNZ METAR and TAF weather

Enter ICAO airport designator
Station Type Date Time Source
HTZA METAR 2019/06/16 07:00 UTC NOAA

HTZA 160700Z 12006KT 9999 FEW016 26/21 Q1019 NOSIG


Station Type Date Time Source
HTZA Decoded METAR 2019/06/16 07:00 UTC NOAA

Zanzibar / Kisauni, Tanzania (HTZA) 06-13S 039-13E 15M
Jun 16, 2019 - 03:00 AM EDT / 2019.06.16 0700 UTC
Wind: from the ESE (120 degrees) at 7 MPH (6 KT):0
Visibility: greater than 7 mile(s):0
Sky conditions: mostly clear
Temperature: 78 F (26 C)
Dew Point: 69 F (21 C)
Relative Humidity: 73%
Pressure (altimeter): 30.09 in. Hg (1019 hPa)
ob: HTZA 160700Z 12006KT 9999 FEW016 26/21 Q1019 NOSIG
cycle: 7

Station Type Date Time Source
HTZA TAF 2019/06/15 18:27 UTC NOAA

HTZA 151700Z 1518/1618 13010KT 9999 FEW018
BECMG 1602/2604 21010KT
BECMG 1612/1614 14015KT

Example: see airport list